Time;durP1;ratioP1;P1;durP2;ratioP2;P2;SDS_P1;SDS_P2;PMS_P1;PMS_P2;Temp;Humidity;BMP_temperature;BMP_pressure;BME280_temperature;BME280_humidity;BME280_pressure;Samples;Min_cycle;Max_cycle;Signal;HPM_P1;HPM_P2
2023/10/06 00:01:43;;;;;;;28.67;20.77;;;18.50;1.00;;;;;;5041209;28;20217;-77
2023/10/06 00:04:12;;;;;;;28.65;20.63;;;18.50;1.00;;;;;;5035644;28;20491;-77
2023/10/06 00:06:42;;;;;;;29.88;20.13;;;18.50;1.00;;;;;;5043057;28;20375;-77
2023/10/06 00:09:09;;;;;;;29.38;20.55;;;18.50;1.00;;;;;;5036042;28;20174;-77
2023/10/06 00:11:40;;;;;;;30.85;20.38;;;18.50;1.00;;;;;;5035849;28;20084;-77
2023/10/06 00:14:07;;;;;;;28.42;19.83;;;18.40;1.00;;;;;;5040866;28;20033;-75
2023/10/06 00:16:40;;;;;;;32.47;20.80;;;18.40;1.00;;;;;;5042556;28;20574;-75
2023/10/06 00:19:41;;;;;;;31.95;20.88;;;18.40;1.00;;;;;;5032216;28;20064;-77
2023/10/06 00:24:37;;;;;;;26.60;19.77;;;18.40;2.40;;;;;;5039582;28;20033;-77
2023/10/06 00:27:03;;;;;;;31.05;21.17;;;18.40;1.70;;;;;;5045723;28;20033;-75
2023/10/06 00:29:29;;;;;;;32.80;22.05;;;18.40;5.70;;;;;;5045883;28;20036;-75
2023/10/06 00:32:21;;;;;;;28.63;19.83;;;18.40;7.70;;;;;;5041329;28;20144;-75
2023/10/06 00:34:46;;;;;;;28.70;20.90;;;18.40;8.70;;;;;;5036802;28;20026;-75
2023/10/06 00:37:12;;;;;;;28.60;20.35;;;18.40;7.60;;;;;;5041640;28;20063;-75
2023/10/06 00:39:38;;;;;;;33.55;22.13;;;18.40;9.30;;;;;;5040105;28;20056;-75
2023/10/06 00:42:05;;;;;;;30.73;20.60;;;18.40;9.50;;;;;;5039134;28;20085;-75
2023/10/06 00:44:31;;;;;;;31.88;21.30;;;18.40;11.20;;;;;;5036328;28;20032;-75
2023/10/06 00:46:59;;;;;;;31.15;21.20;;;18.30;13.40;;;;;;5045719;28;20028;-75
2023/10/06 00:49:31;;;;;;;32.92;22.13;;;18.30;15.10;;;;;;5045016;28;20026;-75
2023/10/06 00:51:59;;;;;;;29.50;21.90;;;18.30;15.80;;;;;;5035117;28;20044;-77
2023/10/06 00:54:26;;;;;;;30.20;20.80;;;18.20;17.10;;;;;;5046740;28;20033;-75
2023/10/06 00:56:57;;;;;;;31.20;20.52;;;18.30;15.40;;;;;;5047574;28;20051;-75
2023/10/06 00:59:24;;;;;;;32.17;22.58;;;18.30;15.30;;;;;;5053509;28;20013;-75
2023/10/06 01:01:50;;;;;;;29.85;22.02;;;18.30;15.30;;;;;;5047897;28;20035;-75
2023/10/06 01:04:18;;;;;;;30.45;21.30;;;18.30;13.80;;;;;;5039633;28;20021;-75
2023/10/06 01:06:43;;;;;;;29.70;21.15;;;18.30;12.60;;;;;;5049726;28;20075;-75
2023/10/06 01:09:16;;;;;;;31.55;22.42;;;18.30;13.00;;;;;;5050494;28;20410;-75
2023/10/06 01:11:49;;;;;;;27.00;19.27;;;18.30;14.00;;;;;;5046622;28;20032;-75
2023/10/06 01:14:26;;;;;;;30.30;22.00;;;18.20;16.60;;;;;;5039155;28;20437;-74
2023/10/06 01:16:54;;;;;;;31.73;21.98;;;18.30;18.90;;;;;;5046134;28;20029;-77
2023/10/06 01:21:47;;;;;;;34.90;22.02;;;18.20;20.70;;;;;;5045514;28;20064;-77
2023/10/06 01:24:24;;;;;;;27.77;21.40;;;18.20;20.20;;;;;;5038366;28;20022;-77
2023/10/06 01:27:11;;;;;;;33.45;22.73;;;18.20;20.20;;;;;;5045924;28;20022;-77
2023/10/06 01:29:37;;;;;;;31.33;22.55;;;18.20;20.70;;;;;;5042507;28;20029;-77
2023/10/06 01:32:05;;;;;;;30.15;22.73;;;18.20;20.70;;;;;;5045869;28;20076;-77
2023/10/06 01:34:38;;;;;;;30.42;21.88;;;18.20;20.70;;;;;;5042925;28;20034;-77
2023/10/06 01:37:09;;;;;;;31.13;23.02;;;18.30;21.20;;;;;;5044633;28;20071;-77
2023/10/06 01:39:35;;;;;;;33.58;23.02;;;18.20;20.70;;;;;;5034680;28;20025;-77
2023/10/06 01:42:07;;;;;;;32.25;22.85;;;18.20;20.50;;;;;;5042273;28;20029;-78
2023/10/06 01:44:36;;;;;;;31.10;22.92;;;18.30;20.10;;;;;;5043326;28;20056;-77
2023/10/06 01:47:05;;;;;;;34.13;23.20;;;18.30;20.40;;;;;;5044440;28;20029;-77
2023/10/06 01:49:33;;;;;;;35.92;23.25;;;18.20;20.50;;;;;;5037449;28;20029;-77
2023/10/06 01:52:02;;;;;;;31.75;22.15;;;18.20;23.10;;;;;;5044020;28;20017;-77
2023/10/06 01:54:34;;;;;;;36.47;23.45;;;18.20;22.20;;;;;;5047790;28;20021;-77
2023/10/06 01:57:04;;;;;;;31.85;22.85;;;18.20;22.90;;;;;;5049453;28;20864;-77
2023/10/06 01:59:30;;;;;;;30.80;22.85;;;18.20;22.30;;;;;;5041206;28;20496;-77
2023/10/06 02:02:00;;;;;;;33.10;23.67;;;18.20;23.90;;;;;;5041098;28;20025;-77
2023/10/06 02:04:26;;;;;;;33.92;24.23;;;18.10;23.30;;;;;;5037574;28;20013;-77
2023/10/06 02:06:52;;;;;;;33.15;23.33;;;18.10;24.40;;;;;;5041336;28;20025;-77
2023/10/06 02:09:18;;;;;;;32.67;23.23;;;18.20;25.00;;;;;;5037688;28;20479;-77
2023/10/06 02:11:50;;;;;;;31.38;23.92;;;18.10;25.20;;;;;;5037780;28;20029;-77
2023/10/06 02:14:17;;;;;;;;;;;18.10;25.10;;;;;;5047101;28;20108;-77
2023/10/06 02:16:46;;;;;;;31.17;24.02;;;18.10;23.30;;;;;;5039557;28;19909;-77
2023/10/06 02:19:18;;;;;;;31.98;24.50;;;18.10;23.70;;;;;;5043569;28;20441;-77
2023/10/06 02:21:51;;;;;;;33.20;24.55;;;18.10;22.90;;;;;;5037567;28;20021;-77
2023/10/06 02:24:17;;;;;;;37.90;24.58;;;18.10;21.50;;;;;;5040796;28;20025;-77
2023/10/06 02:27:00;;;;;;;36.50;24.92;;;18.10;22.80;;;;;;5048805;28;20501;-77
2023/10/06 02:29:26;;;;;;;37.22;25.20;;;18.10;22.60;;;;;;5041457;28;20028;-77
2023/10/06 02:32:01;;;;;;;35.28;25.48;;;18.10;22.20;;;;;;5041189;28;20025;-77
2023/10/06 02:34:35;;;;;;;35.85;24.08;;;18.10;20.30;;;;;;5044948;28;20383;-77
2023/10/06 02:37:01;;;;;;;36.28;24.60;;;18.10;20.70;;;;;;5048069;28;20029;-77
2023/10/06 02:39:31;;;;;;;37.53;25.38;;;18.10;19.70;;;;;;5041318;28;20014;-77
2023/10/06 02:42:00;;;;;;;35.67;26.08;;;18.10;21.20;;;;;;5041892;28;20021;-77
2023/10/06 02:44:26;;;;;;;34.78;25.48;;;18.10;21.20;;;;;;5036808;28;20024;-77
2023/10/06 02:46:52;;;;;;;34.47;24.88;;;18.10;21.80;;;;;;5040281;28;20029;-77
2023/10/06 02:49:31;;;;;;;34.05;24.30;;;18.10;21.70;;;;;;5040569;28;20114;-77
2023/10/06 02:52:00;;;;;;;34.45;24.70;;;18.10;22.40;;;;;;5044677;28;20025;-77
2023/10/06 02:54:29;;;;;;;33.47;25.05;;;18.00;22.80;;;;;;5048818;28;20021;-77
2023/10/06 02:56:56;;;;;;;40.28;23.67;;;18.00;23.30;;;;;;5039599;28;20033;-77
2023/10/06 02:59:26;;;;;;;33.15;24.85;;;18.00;24.10;;;;;;5041506;28;20427;-77
2023/10/06 03:02:00;;;;;;;40.50;26.48;;;18.00;24.40;;;;;;5043187;28;20021;-77
2023/10/06 03:04:27;;;;;;;40.05;26.08;;;18.00;23.60;;;;;;5040712;28;20023;-77
2023/10/06 03:06:57;;;;;;;36.70;25.55;;;18.00;21.40;;;;;;5041288;28;20048;-77
2023/10/06 03:09:42;;;;;;;34.10;25.40;;;18.00;22.60;;;;;;5032030;28;20017;-77
2023/10/06 03:14:49;;;;;;;35.65;24.63;;;18.00;23.40;;;;;;5040178;28;20037;-77
2023/10/06 03:17:18;;;;;;;39.30;26.42;;;18.10;23.10;;;;;;5052114;28;20029;-77
2023/10/06 03:19:44;;;;;;;33.65;25.00;;;18.00;25.50;;;;;;5042067;28;20021;-77
2023/10/06 03:22:13;;;;;;;36.30;24.77;;;18.10;24.90;;;;;;5042516;28;20021;-77
2023/10/06 03:25:00;;;;;;;37.00;26.58;;;18.00;26.30;;;;;;5043991;28;20113;-77
2023/10/06 03:27:26;;;;;;;35.97;25.73;;;18.00;28.60;;;;;;5037887;28;20043;-77
2023/10/06 03:29:55;;;;;;;36.75;25.02;;;18.00;28.60;;;;;;5039589;28;20026;-77
2023/10/06 03:32:43;;;;;;;35.55;25.83;;;18.00;29.30;;;;;;5043661;28;20022;-77
2023/10/06 03:35:22;;;;;;;35.95;25.65;;;18.00;28.80;;;;;;5046853;28;20368;-77
2023/10/06 03:38:07;;;;;;;39.92;26.40;;;18.00;29.60;;;;;;5037944;28;20075;-77
2023/10/06 03:40:45;;;;;;;42.08;25.08;;;18.00;30.60;;;;;;5040892;28;20027;-77
2023/10/06 03:46:24;;;;;;;37.60;24.58;;;18.00;34.90;;;;;;5025945;28;20025;-77
2023/10/06 03:48:55;;;;;;;34.15;24.92;;;18.00;37.70;;;;;;5029475;28;20163;-77
2023/10/06 03:51:21;;;;;;;30.73;23.55;;;18.00;39.60;;;;;;5036627;28;20030;-77
2023/10/06 03:53:50;;;;;;;33.60;23.67;;;18.00;39.80;;;;;;5040106;28;20104;-78
2023/10/06 03:56:16;;;;;;;35.13;24.10;;;18.00;41.90;;;;;;5042414;28;20025;-77
2023/10/06 03:58:45;;;;;;;37.30;24.60;;;18.00;41.80;;;;;;5050068;28;20106;-77
2023/10/06 04:01:17;;;;;;;37.42;25.60;;;18.00;44.50;;;;;;5041335;28;20047;-77
2023/10/06 04:03:43;;;;;;;38.80;25.63;;;18.00;43.80;;;;;;5040200;28;20067;-77
2023/10/06 04:06:12;;;;;;;36.40;24.58;;;18.10;42.90;;;;;;5034143;28;20026;-77
2023/10/06 04:08:40;;;;;;;40.17;25.10;;;18.10;45.90;;;;;;5042376;28;20021;-77
2023/10/06 04:11:05;;;;;;;36.80;24.77;;;18.10;46.60;;;;;;5041501;28;20026;-77
2023/10/06 04:13:31;;;;;;;39.70;25.63;;;18.10;45.10;;;;;;5047374;28;20169;-77
2023/10/06 04:15:58;;;;;;;31.85;23.42;;;18.10;47.70;;;;;;5043883;28;20033;-77
2023/10/06 04:18:24;;;;;;;31.88;24.10;;;18.10;45.30;;;;;;5042404;28;20082;-77
2023/10/06 04:20:52;;;;;;;35.65;24.13;;;18.20;43.60;;;;;;5043821;28;20103;-77
2023/10/06 04:23:18;;;;;;;35.70;24.88;;;18.20;42.30;;;;;;5050094;28;20070;-77
2023/10/06 04:25:46;;;;;;;34.08;23.50;;;18.20;44.70;;;;;;5046404;28;20387;-77
2023/10/06 04:28:14;;;;;;;33.65;23.98;;;18.20;44.20;;;;;;5047235;28;20047;-77
2023/10/06 04:30:43;;;;;;;35.20;24.10;;;18.30;44.10;;;;;;5047064;28;20379;-77
2023/10/06 04:33:11;;;;;;;37.05;25.05;;;18.30;41.70;;;;;;5045889;28;20076;-77
2023/10/06 04:35:55;;;;;;;35.08;24.45;;;18.30;40.50;;;;;;5045224;28;20087;-77
2023/10/06 04:38:25;;;;;;;39.90;25.00;;;18.40;43.70;;;;;;5050830;28;20036;-77
2023/10/06 04:40:51;;;;;;;35.20;24.20;;;18.30;44.20;;;;;;5043168;28;20025;-77
2023/10/06 04:43:17;;;;;;;34.20;23.33;;;18.40;43.60;;;;;;5045881;28;20383;-77
2023/10/06 04:45:47;;;;;;;32.67;24.45;;;18.40;43.80;;;;;;5047353;28;20024;-77
2023/10/06 04:48:20;;;;;;;33.38;23.20;;;18.40;46.40;;;;;;5048374;28;20025;-77
2023/10/06 04:50:46;;;;;;;34.05;23.70;;;18.40;46.80;;;;;;5045267;28;20291;-77
2023/10/06 04:53:11;;;;;;;32.50;23.05;;;18.40;45.80;;;;;;5040024;28;20069;-77
2023/10/06 04:55:40;;;;;;;32.67;23.80;;;18.40;47.10;;;;;;5046727;28;20401;-77
2023/10/06 04:58:14;;;;;;;34.65;23.88;;;18.40;44.30;;;;;;5042486;28;20050;-77
2023/10/06 05:00:40;;;;;;;34.47;22.42;;;18.40;46.10;;;;;;5046374;28;20104;-77
2023/10/06 05:03:06;;;;;;;34.50;24.20;;;18.40;45.20;;;;;;5039647;28;20021;-77
2023/10/06 05:05:40;;;;;;;32.90;23.20;;;18.40;46.90;;;;;;5041329;28;20025;-77
2023/10/06 05:08:14;;;;;;;34.90;23.60;;;18.50;51.00;;;;;;5044036;28;20018;-77
2023/10/06 05:10:40;;;;;;;35.90;23.63;;;18.50;47.50;;;;;;5043156;28;20029;-77
2023/10/06 05:13:07;;;;;;;36.53;23.20;;;18.50;46.00;;;;;;5037705;28;20383;-77
2023/10/06 05:15:34;;;;;;;36.13;23.13;;;18.50;45.60;;;;;;5037079;28;20080;-77
2023/10/06 05:18:02;;;;;;;38.90;22.15;;;18.50;47.70;;;;;;5030488;28;20120;-77
2023/10/06 05:20:32;;;;;;;37.10;22.08;;;18.50;46.40;;;;;;5036600;28;20395;-77
2023/10/06 05:23:07;;;;;;;36.17;23.23;;;18.60;46.80;;;;;;5034283;28;20044;-77
2023/10/06 05:25:39;;;;;;;32.42;22.48;;;18.60;47.20;;;;;;5033549;28;20076;-77
2023/10/06 05:28:07;;;;;;;32.92;23.58;;;18.60;44.80;;;;;;5033667;28;20040;-77
2023/10/06 05:30:33;;;;;;;33.08;23.80;;;18.60;45.40;;;;;;5042318;28;20021;-77
2023/10/06 05:33:03;;;;;;;33.28;22.98;;;18.70;45.00;;;;;;5047961;28;20364;-77
2023/10/06 05:35:36;;;;;;;32.05;22.60;;;18.70;45.10;;;;;;5030157;28;20044;-77
2023/10/06 05:38:08;;;;;;;32.47;22.88;;;18.70;46.50;;;;;;5050088;28;20029;-77
2023/10/06 05:40:36;;;;;;;30.40;21.92;;;18.70;48.00;;;;;;5042059;28;20033;-77
2023/10/06 05:43:04;;;;;;;29.77;21.98;;;18.70;46.40;;;;;;5052503;28;20116;-77
2023/10/06 05:45:30;;;;;;;29.85;22.77;;;18.60;47.80;;;;;;5045842;28;20024;-77
2023/10/06 05:48:06;;;;;;;34.03;23.00;;;18.70;50.50;;;;;;5041996;28;20033;-77
2023/10/06 05:50:35;;;;;;;33.03;23.75;;;18.70;47.40;;;;;;5035217;28;20056;-77
2023/10/06 05:53:12;;;;;;;37.75;23.52;;;18.70;44.40;;;;;;5038752;28;20036;-77
2023/10/06 05:55:41;;;;;;;35.03;22.88;;;18.80;45.60;;;;;;5041382;28;20031;-77
2023/10/06 05:58:19;;;;;;;29.98;21.02;;;18.80;46.70;;;;;;5041545;28;20052;-77
2023/10/06 06:00:52;;;;;;;33.53;22.17;;;18.80;46.10;;;;;;5035762;28;20391;-77
2023/10/06 06:03:23;;;;;;;36.38;21.52;;;18.80;48.30;;;;;;5040713;28;20044;-77
2023/10/06 06:05:49;;;;;;;35.05;22.15;;;18.90;49.80;;;;;;5040659;28;20039;-77
2023/10/06 06:08:15;;;;;;;32.40;21.33;;;18.90;51.40;;;;;;5037443;28;20111;-77
2023/10/06 06:10:41;;;;;;;35.45;22.80;;;18.90;48.70;;;;;;5041990;28;20555;-77
2023/10/06 06:13:07;;;;;;;31.40;22.15;;;18.90;49.60;;;;;;5045100;28;20083;-78
2023/10/06 06:15:35;;;;;;;35.42;21.27;;;18.90;47.70;;;;;;5039238;28;20033;-78
2023/10/06 06:18:02;;;;;;;29.27;22.02;;;19.00;46.60;;;;;;5042753;28;20086;-78
2023/10/06 06:20:29;;;;;;;32.42;21.27;;;19.00;45.90;;;;;;5041407;28;20098;-77
2023/10/06 06:23:02;;;;;;;30.77;21.85;;;19.00;44.40;;;;;;5044297;28;20150;-77
2023/10/06 06:25:29;;;;;;;32.47;22.20;;;19.10;41.90;;;;;;5039389;28;20171;-77
2023/10/06 06:27:59;;;;;;;34.08;21.52;;;19.10;51.30;;;;;;5038841;28;20025;-77
2023/10/06 06:30:26;;;;;;;35.78;21.58;;;19.10;49.70;;;;;;5033548;28;20025;-77
2023/10/06 06:32:53;;;;;;;27.42;20.58;;;19.10;50.50;;;;;;5030814;28;20472;-77
2023/10/06 06:35:26;;;;;;;31.13;20.65;;;19.10;50.40;;;;;;5032313;28;20167;-77
2023/10/06 06:37:59;;;;;;;35.25;22.00;;;19.10;46.00;;;;;;5030716;28;20068;-78
2023/10/06 06:40:26;;;;;;;33.42;22.38;;;19.20;44.00;;;;;;5032451;28;20160;-77
2023/10/06 06:42:52;;;;;;;31.92;21.38;;;19.20;41.50;;;;;;5026157;28;20013;-77
2023/10/06 06:45:24;;;;;;;30.17;21.67;;;19.20;42.80;;;;;;5035550;28;20450;-77
2023/10/06 06:47:50;;;;;;;35.00;21.98;;;19.20;44.20;;;;;;5033086;28;20013;-77
2023/10/06 06:50:17;;;;;;;31.23;21.65;;;19.30;47.10;;;;;;5033192;28;20387;-77
2023/10/06 06:52:47;;;;;;;31.05;21.13;;;19.30;44.50;;;;;;5033753;28;20100;-77
2023/10/06 06:55:13;;;;;;;34.35;19.90;;;19.30;45.70;;;;;;5030934;28;20021;-74
2023/10/06 06:57:48;;;;;;;27.45;19.77;;;19.30;47.20;;;;;;5036923;28;20048;-74
2023/10/06 07:00:15;;;;;;;28.70;19.77;;;19.40;49.20;;;;;;5030993;28;20021;-74
2023/10/06 07:02:54;;;;;;;33.83;20.70;;;19.40;44.30;;;;;;5033223;28;20021;-74
2023/10/06 07:05:23;;;;;;;28.25;20.05;;;19.50;39.80;;;;;;5030975;28;20024;-77
2023/10/06 07:07:52;;;;;;;29.17;20.20;;;19.50;35.90;;;;;;5038707;28;20028;-77
2023/10/06 07:10:20;;;;;;;32.15;19.73;;;19.60;35.70;;;;;;5037670;28;20033;-77
2023/10/06 07:12:47;;;;;;;31.13;20.58;;;19.60;44.50;;;;;;5033121;28;20116;-77
2023/10/06 07:15:20;;;;;;;31.95;20.33;;;19.60;43.00;;;;;;5033481;28;20030;-77
2023/10/06 07:17:49;;;;;;;27.70;20.42;;;19.60;36.20;;;;;;5033249;28;20033;-77
2023/10/06 07:20:17;;;;;;;30.55;20.55;;;19.70;35.70;;;;;;5052373;28;20059;-77
2023/10/06 07:22:50;;;;;;;31.70;20.70;;;19.70;30.40;;;;;;5053368;28;20025;-77
2023/10/06 07:25:16;;;;;;;27.45;19.67;;;19.70;30.80;;;;;;5048670;28;20060;-77
2023/10/06 07:27:55;;;;;;;28.63;20.13;;;19.70;32.30;;;;;;5043333;28;20040;-77
2023/10/06 07:30:22;;;;;;;32.03;20.02;;;19.80;33.60;;;;;;5041881;28;20044;-77
2023/10/06 07:32:50;;;;;;;32.78;20.48;;;19.80;28.40;;;;;;5053046;28;20017;-77
2023/10/06 07:35:18;;;;;;;30.90;20.83;;;19.80;26.80;;;;;;5051705;28;20048;-77
2023/10/06 07:37:45;;;;;;;31.65;20.77;;;19.90;27.50;;;;;;5036290;28;20108;-78
2023/10/06 07:40:13;;;;;;;32.05;20.88;;;19.90;24.90;;;;;;5031858;28;20551;-77
2023/10/06 07:42:44;;;;;;;33.85;20.63;;;19.90;23.40;;;;;;5033011;28;20124;-77
2023/10/06 07:45:10;;;;;;;28.35;20.15;;;20.00;21.50;;;;;;5033026;28;20404;-77
2023/10/06 07:47:40;;;;;;;29.25;19.95;;;20.00;20.00;;;;;;5033232;28;20047;-77
2023/10/06 07:50:09;;;;;;;30.58;19.58;;;20.00;23.20;;;;;;5033013;28;20029;-75
2023/10/06 07:52:36;;;;;;;27.80;20.15;;;20.10;27.50;;;;;;5031407;28;20033;-75
2023/10/06 07:55:05;;;;;;;27.38;19.25;;;20.10;29.50;;;;;;5033282;28;20033;-75
2023/10/06 07:57:33;;;;;;;29.95;19.15;;;20.20;34.50;;;;;;5047260;28;20045;-75
2023/10/06 07:59:59;;;;;;;27.98;18.80;;;20.20;32.10;;;;;;5051804;28;20022;-75
2023/10/06 08:02:29;;;;;;;28.58;18.58;;;20.20;26.70;;;;;;5032947;28;20079;-74
2023/10/06 08:04:55;;;;;;;31.48;18.90;;;20.30;23.80;;;;;;5036130;28;20025;-72
2023/10/06 08:07:26;;;;;;;27.70;18.75;;;20.30;20.20;;;;;;5038002;28;20025;-73
2023/10/06 08:09:53;;;;;;;26.07;18.87;;;20.40;16.20;;;;;;5035904;28;20074;-73
2023/10/06 08:12:19;;;;;;;30.92;20.25;;;20.40;11.00;;;;;;5040609;28;20264;-73
2023/10/06 08:14:45;;;;;;;27.88;19.33;;;20.50;4.20;;;;;;5040104;28;20490;-73
2023/10/06 08:17:10;;;;;;;26.27;18.02;;;20.60;4.10;;;;;;5037436;28;20047;-73
2023/10/06 08:19:36;;;;;;;30.65;18.20;;;20.60;1.00;;;;;;5040835;28;20048;-72
2023/10/06 08:22:01;;;;;;;26.80;16.80;;;20.70;1.00;;;;;;5037768;28;20034;-73
2023/10/06 08:24:27;;;;;;;25.70;17.05;;;20.70;1.00;;;;;;5037696;28;20060;-73
2023/10/06 08:26:54;;;;;;;24.90;15.82;;;20.80;1.00;;;;;;5042860;28;20021;-72
2023/10/06 08:29:20;;;;;;;22.70;13.13;;;20.80;1.00;;;;;;5039509;28;20067;-73
2023/10/06 08:31:46;;;;;;;15.30;9.43;;;20.80;1.00;;;;;;5040813;28;20017;-73
2023/10/06 08:34:12;;;;;;;17.85;9.95;;;20.90;99.90;;;;;;5034014;28;20022;-72
2023/10/06 08:36:41;;;;;;;12.98;10.30;;;20.90;99.90;;;;;;5042814;28;20569;-73
2023/10/06 08:39:10;;;;;;;13.20;8.98;;;21.00;99.90;;;;;;5034955;28;20227;-73
2023/10/06 08:41:43;;;;;;;14.15;7.57;;;21.00;99.90;;;;;;5043360;28;20018;-73
2023/10/06 08:44:12;;;;;;;11.57;8.02;;;21.10;99.90;;;;;;5040217;28;20022;-73
2023/10/06 08:46:43;;;;;;;18.02;9.00;;;21.20;99.90;;;;;;5037627;28;20071;-73
2023/10/06 08:49:12;;;;;;;13.88;10.05;;;21.20;99.90;;;;;;5042720;28;20100;-73
2023/10/06 08:51:41;;;;;;;16.58;10.68;;;21.20;95.70;;;;;;5040847;28;20025;-73
2023/10/06 08:54:13;;;;;;;16.48;10.20;;;21.30;62.30;;;;;;5039233;28;20014;-73
2023/10/06 08:56:39;;;;;;;12.10;9.20;;;21.30;99.90;;;;;;5041005;28;20031;-73
2023/10/06 08:59:05;;;;;;;12.98;8.55;;;21.40;99.90;;;;;;5042843;28;20021;-73
2023/10/06 09:01:32;;;;;;;12.88;8.32;;;21.50;99.90;;;;;;5040507;28;20027;-73
2023/10/06 09:04:03;;;;;;;14.10;8.63;;;21.50;99.90;;;;;;5037902;28;20018;-73
2023/10/06 09:06:29;;;;;;;10.00;6.85;;;21.50;99.90;;;;;;5042904;28;20040;-73
2023/10/06 09:08:55;;;;;;;8.23;7.35;;;21.60;99.90;;;;;;5042611;28;20025;-73
2023/10/06 09:11:44;;;;;;;11.00;7.63;;;21.60;99.90;;;;;;5044458;28;20048;-73
2023/10/06 09:14:11;;;;;;;14.00;8.02;;;21.70;99.90;;;;;;5030482;28;20032;-73
2023/10/06 09:16:52;;;;;;;11.25;6.93;;;21.70;99.90;;;;;;5043792;28;20017;-73
2023/10/06 09:19:18;;;;;;;9.63;7.50;;;21.80;99.90;;;;;;5073666;28;20053;-73
2023/10/06 09:22:07;;;;;;;13.57;8.50;;;21.80;99.90;;;;;;5044680;28;20018;-73
2023/10/06 09:24:33;;;;;;;12.68;7.40;;;21.90;99.90;;;;;;5040278;28;20029;-73
2023/10/06 09:27:01;;;;;;;10.38;6.75;;;21.90;99.90;;;;;;5044700;28;20506;-72
2023/10/06 09:29:32;;;;;;;12.43;6.20;;;22.00;99.90;;;;;;5045794;28;20021;-73
2023/10/06 09:32:00;;;;;;;7.60;6.30;;;22.00;99.90;;;;;;5035539;28;20022;-73
2023/10/06 09:34:27;;;;;;;10.52;6.70;;;22.10;99.90;;;;;;5040012;28;20028;-73
2023/10/06 09:36:53;;;;;;;14.63;6.82;;;22.20;18.90;;;;;;5041454;28;20125;-73
2023/10/06 09:39:32;;;;;;;8.10;5.55;;;22.30;51.00;;;;;;5045386;28;20028;-73
2023/10/06 09:42:00;;;;;;;9.90;6.18;;;22.40;99.90;;;;;;5042010;28;20030;-73
2023/10/06 09:44:29;;;;;;;11.70;6.70;;;22.40;1.00;;;;;;5041421;28;20120;-73
2023/10/06 09:46:59;;;;;;;10.38;5.93;;;22.40;1.00;;;;;;5045306;28;20505;-73
2023/10/06 09:49:26;;;;;;;10.13;6.57;;;22.50;77.70;;;;;;5041854;28;20036;-73
2023/10/06 09:51:52;;;;;;;9.52;7.20;;;22.50;99.90;;;;;;5043304;28;20049;-73
2023/10/06 09:54:20;;;;;;;10.43;7.03;;;22.50;99.90;;;;;;5044295;28;20048;-73
2023/10/06 09:56:47;;;;;;;16.80;7.82;;;22.40;92.40;;;;;;5043659;28;20041;-73
2023/10/06 09:59:14;;;;;;;12.80;7.82;;;22.40;99.90;;;;;;5038274;28;20390;-73
2023/10/06 10:01:45;;;;;;;11.77;8.68;;;22.40;99.90;;;;;;5044123;28;20048;-72
2023/10/06 10:04:11;;;;;;;12.57;8.30;;;22.40;1.00;;;;;;5043901;28;20025;-72
2023/10/06 10:06:44;;;;;;;17.35;8.77;;;22.40;1.00;;;;;;5042146;28;20084;-73
2023/10/06 10:09:16;;;;;;;13.57;8.82;;;22.40;1.00;;;;;;5035221;28;20029;-73
2023/10/06 10:12:05;;;;;;;11.32;7.82;;;22.40;1.00;;;;;;5041587;28;20028;-73
2023/10/06 10:15:02;;;;;;;10.77;7.72;;;22.40;1.00;;;;;;5032102;28;20037;-73
2023/10/06 10:17:37;;;;;;;13.23;7.57;;;22.50;1.00;;;;;;5040362;28;20025;-75
2023/10/06 10:20:07;;;;;;;11.23;7.53;;;22.50;1.00;;;;;;5039007;28;20021;-75
2023/10/06 10:22:33;;;;;;;16.95;8.15;;;22.40;99.90;;;;;;5041542;28;20021;-75
2023/10/06 10:25:05;;;;;;;10.82;6.95;;;22.40;99.90;;;;;;5044927;28;20025;-75
2023/10/06 10:27:33;;;;;;;15.23;6.97;;;22.50;99.90;;;;;;5041923;28;20029;-73
2023/10/06 10:30:07;;;;;;;13.48;7.70;;;22.50;99.90;;;;;;5040918;28;20795;-73
2023/10/06 10:32:33;;;;;;;9.60;7.85;;;22.50;99.90;;;;;;5039959;28;20075;-73
2023/10/06 10:35:14;;;;;;;13.68;7.90;;;22.50;99.90;;;;;;5043656;28;20033;-73
2023/10/06 10:38:02;;;;;;;14.55;9.00;;;22.50;99.90;;;;;;5041971;28;20479;-75
2023/10/06 10:40:31;;;;;;;12.13;9.43;;;22.60;99.90;;;;;;5043207;28;20022;-73
2023/10/06 10:43:09;;;;;;;13.60;8.88;;;22.60;99.90;;;;;;5040988;28;20483;-73
2023/10/06 10:45:38;;;;;;;14.98;8.35;;;22.50;99.90;;;;;;5040161;28;20104;-73
2023/10/06 10:48:13;;;;;;;11.75;9.10;;;22.50;99.90;;;;;;5041326;28;20022;-73
2023/10/06 10:51:00;;;;;;;14.90;8.88;;;22.50;99.90;;;;;;5042026;28;20082;-73
2023/10/06 10:53:38;;;;;;;11.32;8.48;;;22.60;99.90;;;;;;5037721;28;20026;-75
2023/10/06 10:56:06;;;;;;;16.92;8.35;;;22.70;99.90;;;;;;5043126;28;20281;-73
2023/10/06 10:58:48;;;;;;;15.73;9.30;;;22.80;99.90;;;;;;5040421;28;20044;-72
2023/10/06 11:01:27;;;;;;;16.60;9.30;;;22.90;99.90;;;;;;5043006;28;20386;-73
2023/10/06 11:04:18;;;;;;;14.63;9.27;;;22.90;99.90;;;;;;5038699;28;20533;-73
2023/10/06 11:06:48;;;;;;;14.70;9.23;;;22.90;99.90;;;;;;5039099;28;20026;-73
2023/10/06 11:09:30;;;;;;;12.70;8.20;;;22.90;99.90;;;;;;5040468;28;20376;-73
2023/10/06 11:12:01;;;;;;;20.00;9.82;;;22.90;99.90;;;;;;5038459;28;20029;-73
2023/10/06 11:14:29;;;;;;;14.93;8.65;;;22.90;99.90;;;;;;5040016;28;20074;-73
2023/10/06 11:17:02;;;;;;;12.32;9.07;;;23.00;99.90;;;;;;5044060;28;20028;-73
2023/10/06 11:19:29;;;;;;;13.65;10.32;;;23.00;99.90;;;;;;5041568;28;20022;-76
2023/10/06 11:21:57;;;;;;;13.68;10.50;;;23.10;99.90;;;;;;5042874;28;20022;-73
2023/10/06 11:24:27;;;;;;;18.08;9.98;;;23.10;99.90;;;;;;5041979;28;20078;-73
2023/10/06 11:26:53;;;;;;;16.40;9.30;;;23.10;99.90;;;;;;5037148;28;20025;-73
2023/10/06 11:29:31;;;;;;;15.90;11.45;;;23.00;99.90;;;;;;5042192;28;20025;-73
2023/10/06 11:32:03;;;;;;;20.40;11.85;;;23.10;99.90;;;;;;5040070;28;20736;-72
2023/10/06 11:34:28;;;;;;;17.17;11.57;;;23.20;99.90;;;;;;5030642;28;20514;-73
2023/10/06 11:36:56;;;;;;;15.65;11.43;;;23.20;99.90;;;;;;5040582;28;20025;-73
2023/10/06 11:39:24;;;;;;;18.50;12.50;;;23.20;99.90;;;;;;5028764;28;20316;-73
2023/10/06 11:41:55;;;;;;;20.38;11.20;;;23.30;93.70;;;;;;5042292;28;20540;-72
2023/10/06 11:44:21;;;;;;;17.83;10.95;;;23.20;97.90;;;;;;5019039;28;20026;-73
2023/10/06 11:46:51;;;;;;;19.27;10.43;;;23.20;99.90;;;;;;5039660;28;20498;-73
2023/10/06 11:49:20;;;;;;;22.27;10.93;;;23.20;99.90;;;;;;5040922;28;20025;-73
2023/10/06 11:51:46;;;;;;;19.95;10.70;;;23.40;99.90;;;;;;5040272;28;20028;-73
2023/10/06 11:54:12;;;;;;;15.85;9.88;;;23.40;93.40;;;;;;5035569;28;20514;-73
2023/10/06 11:56:55;;;;;;;19.65;11.27;;;23.40;99.90;;;;;;5043180;28;20057;-73
2023/10/06 11:59:22;;;;;;;15.18;10.65;;;23.30;99.60;;;;;;5043411;28;20048;-76
2023/10/06 12:01:48;;;;;;;16.75;10.02;;;23.40;99.90;;;;;;5040013;28;20025;-75
2023/10/06 12:04:34;;;;;;;15.60;9.73;;;23.40;99.90;;;;;;5044983;28;20059;-75
2023/10/06 12:07:00;;;;;;;14.27;8.85;;;23.50;99.90;;;;;;5037267;28;20033;-73
2023/10/06 12:09:33;;;;;;;18.27;10.43;;;23.50;99.90;;;;;;5041606;28;20425;-73
2023/10/06 12:11:59;;;;;;;17.90;9.30;;;23.60;90.30;;;;;;5041538;28;20078;-73
2023/10/06 12:14:30;;;;;;;15.10;9.55;;;23.60;41.50;;;;;;5038829;28;20025;-73
2023/10/06 12:16:55;;;;;;;14.75;9.30;;;23.60;63.50;;;;;;5042026;28;20356;-73
2023/10/06 12:19:27;;;;;;;19.85;11.45;;;23.60;30.50;;;;;;5038087;28;20039;-73
2023/10/06 12:21:53;;;;;;;;;;;23.60;11.90;;;;;;5038958;28;20507;-73
2023/10/06 12:24:22;;;;;;;17.38;11.00;;;23.60;18.60;;;;;;5041492;28;19916;-73
2023/10/06 12:26:47;;;;;;;11.93;10.20;;;23.60;25.90;;;;;;5042556;28;20022;-73
2023/10/06 12:29:20;;;;;;;14.70;9.57;;;23.60;29.00;;;;;;5039042;28;20048;-73
2023/10/06 12:31:46;;;;;;;15.52;10.15;;;23.80;32.50;;;;;;5038578;28;20013;-73
2023/10/06 12:34:15;;;;;;;14.85;9.63;;;23.70;1.00;;;;;;5037410;28;20022;-73
2023/10/06 12:36:48;;;;;;;13.30;8.75;;;23.60;6.90;;;;;;5038244;28;20503;-73
2023/10/06 12:39:30;;;;;;;12.48;7.93;;;23.60;1.00;;;;;;5039627;28;20037;-73
2023/10/06 12:41:57;;;;;;;11.18;7.50;;;23.70;4.80;;;;;;5040361;28;20423;-73
2023/10/06 12:44:27;;;;;;;12.27;7.72;;;23.80;14.70;;;;;;5047078;28;20047;-73
2023/10/06 12:46:56;;;;;;;13.60;7.72;;;24.00;1.00;;;;;;5046056;28;20474;-73
2023/10/06 12:49:23;;;;;;;10.85;7.70;;;24.00;1.70;;;;;;5039966;28;20506;-73
2023/10/06 12:51:50;;;;;;;11.02;7.53;;;24.00;12.30;;;;;;5045228;28;20025;-73
2023/10/06 12:54:15;;;;;;;12.00;7.88;;;24.00;39.30;;;;;;5042761;28;20029;-73
2023/10/06 12:56:46;;;;;;;16.52;8.80;;;24.00;30.70;;;;;;5046479;28;20108;-73